createdAt,value
2023-03-30T00:02:42.596Z,19.39
2023-03-30T00:05:19.399Z,19.42
2023-03-30T00:07:50.339Z,19.42
2023-03-30T00:10:19.590Z,19.39
2023-03-30T00:12:56.663Z,19.34
2023-03-30T00:15:29.053Z,19.34
2023-03-30T00:18:06.064Z,19.33
2023-03-30T00:20:37.915Z,19.29
2023-03-30T00:23:10.409Z,19.31
2023-03-30T00:25:37.875Z,19.34
2023-03-30T00:28:18.991Z,19.35
2023-03-30T00:30:59.116Z,19.29
2023-03-30T00:33:44.620Z,19.27
2023-03-30T00:36:12.770Z,19.22
2023-03-30T00:38:42.952Z,19.20
2023-03-30T00:41:10.543Z,19.16
2023-03-30T00:44:01.640Z,19.13
2023-03-30T00:46:37.325Z,19.20
2023-03-30T00:49:14.758Z,19.13
2023-03-30T00:51:45.802Z,19.14
2023-03-30T00:54:23.837Z,19.16
2023-03-30T00:56:54.501Z,19.19
2023-03-30T01:02:23.791Z,19.20
2023-03-30T01:04:58.092Z,19.21
2023-03-30T01:08:00.221Z,19.23
2023-03-30T01:10:48.915Z,19.19
2023-03-30T01:13:28.399Z,19.17
2023-03-30T01:16:21.575Z,19.16
2023-03-30T01:19:11.598Z,19.18
2023-03-30T01:22:13.265Z,19.10
2023-03-30T01:25:55.960Z,19.10
2023-03-30T01:28:50.862Z,19.13
2023-03-30T01:31:45.720Z,19.00
2023-03-30T01:34:43.517Z,18.83
2023-03-30T01:41:14.820Z,18.94
2023-03-30T01:44:39.090Z,18.96
2023-03-30T01:47:57.870Z,18.99
2023-03-30T01:51:15.915Z,18.96
2023-03-30T01:54:09.374Z,18.91
2023-03-30T01:57:07.214Z,18.96
2023-03-30T02:00:16.715Z,18.87
2023-03-30T02:03:03.163Z,18.89
2023-03-30T02:05:34.173Z,18.84
2023-03-30T02:08:10.262Z,18.81
2023-03-30T02:10:41.517Z,18.90
2023-03-30T02:13:21.765Z,18.80
2023-03-30T02:15:59.567Z,18.82
2023-03-30T02:18:27.769Z,18.79
2023-03-30T02:20:59.646Z,18.82
2023-03-30T02:23:41.350Z,18.83
2023-03-30T02:26:12.532Z,18.87
2023-03-30T02:28:42.766Z,18.86
2023-03-30T02:31:18.169Z,18.84
2023-03-30T02:34:01.405Z,18.81
2023-03-30T02:36:37.946Z,18.74
2023-03-30T02:39:30.237Z,18.73
2023-03-30T02:42:05.182Z,18.70
2023-03-30T02:45:00.216Z,18.65
2023-03-30T02:47:43.649Z,18.56
2023-03-30T02:50:32.843Z,18.63
2023-03-30T02:53:20.749Z,18.60
2023-03-30T02:56:04.413Z,18.61
2023-03-30T02:58:54.336Z,18.60
2023-03-30T03:01:38.813Z,18.56
2023-03-30T03:04:13.068Z,18.57
2023-03-30T03:06:56.672Z,18.54
2023-03-30T03:09:25.381Z,18.51
2023-03-30T03:11:56.042Z,18.49
2023-03-30T03:14:31.878Z,18.43
2023-03-30T03:17:01.632Z,18.43
2023-03-30T03:19:34.240Z,18.41
2023-03-30T03:22:07.332Z,18.41
2023-03-30T03:24:44.994Z,18.39
2023-03-30T03:27:15.808Z,18.40
2023-03-30T03:30:18.222Z,18.33
2023-03-30T03:32:56.090Z,18.31
2023-03-30T03:35:30.218Z,18.24
2023-03-30T03:38:00.672Z,18.18
2023-03-30T03:40:30.210Z,17.80
2023-03-30T03:43:00.720Z,18.00
2023-03-30T03:45:36.761Z,17.87
2023-03-30T03:48:16.232Z,17.74
2023-03-30T03:51:04.745Z,17.68
2023-03-30T03:53:35.334Z,17.92
2023-03-30T03:56:09.603Z,18.05
2023-03-30T03:58:37.744Z,17.97
2023-03-30T04:01:34.027Z,18.10
2023-03-30T04:04:19.448Z,18.10
2023-03-30T04:06:56.470Z,18.14
2023-03-30T04:09:43.242Z,18.20
2023-03-30T04:12:37.388Z,18.12
2023-03-30T04:15:34.186Z,17.89
2023-03-30T04:18:44.231Z,17.93
2023-03-30T04:21:47.179Z,17.82
2023-03-30T04:24:33.450Z,17.64
2023-03-30T04:27:51.657Z,17.24
2023-03-30T04:30:43.483Z,17.50
2023-03-30T04:34:02.185Z,17.51
2023-03-30T04:37:12.385Z,17.40
2023-03-30T04:40:08.089Z,17.59
2023-03-30T04:43:14.337Z,17.69
2023-03-30T04:46:14.103Z,17.67
2023-03-30T04:49:28.276Z,17.67
2023-03-30T04:52:34.456Z,17.64
2023-03-30T04:55:28.568Z,17.77
2023-03-30T04:58:27.292Z,17.61
2023-03-30T05:01:10.370Z,17.26
2023-03-30T05:04:06.666Z,17.63
2023-03-30T05:07:15.151Z,17.56
2023-03-30T05:10:17.266Z,17.51
2023-03-30T05:13:32.465Z,17.41
2023-03-30T05:16:26.567Z,17.64
2023-03-30T05:19:26.640Z,17.24
2023-03-30T05:22:20.694Z,17.21
2023-03-30T05:25:24.536Z,17.34
2023-03-30T05:28:25.628Z,17.03
2023-03-30T05:31:29.776Z,17.30
2023-03-30T05:34:38.636Z,17.34
2023-03-30T05:37:38.682Z,17.23
2023-03-30T05:41:02.494Z,17.34
2023-03-30T05:44:05.017Z,17.13
2023-03-30T05:47:03.618Z,16.88
2023-03-30T05:50:12.356Z,17.01
2023-03-30T05:53:21.859Z,16.83
2023-03-30T05:56:35.091Z,16.73
2023-03-30T05:59:26.928Z,17.01
2023-03-30T06:02:19.358Z,17.13
2023-03-30T06:04:55.414Z,17.12
2023-03-30T06:07:26.954Z,17.26
2023-03-30T06:10:07.752Z,17.21
2023-03-30T06:12:45.544Z,17.49
2023-03-30T06:15:44.568Z,17.54
2023-03-30T06:18:43.848Z,17.65
2023-03-30T06:21:27.089Z,17.71
2023-03-30T06:24:22.672Z,17.65
2023-03-30T06:27:03.176Z,17.79
2023-03-30T06:29:58.875Z,17.93
2023-03-30T06:32:46.364Z,18.03
2023-03-30T06:36:19.182Z,18.11
2023-03-30T06:38:56.910Z,18.14
2023-03-30T06:41:33.997Z,18.21
2023-03-30T06:44:04.824Z,18.36
2023-03-30T06:46:43.864Z,18.39
2023-03-30T06:49:33.588Z,18.48
2023-03-30T06:52:51.096Z,18.45
2023-03-30T06:55:31.173Z,18.35
2023-03-30T06:58:11.482Z,18.34
2023-03-30T07:00:42.709Z,18.15
2023-03-30T07:03:40.703Z,17.60
2023-03-30T07:06:36.051Z,17.99
2023-03-30T07:09:22.206Z,17.99
2023-03-30T07:12:12.579Z,17.79
2023-03-30T07:15:13.561Z,17.91
2023-03-30T07:18:09.965Z,17.96
2023-03-30T07:20:44.130Z,17.41
2023-03-30T07:23:33.288Z,17.46
2023-03-30T07:26:20.770Z,17.90
2023-03-30T07:29:01.730Z,17.88
2023-03-30T07:32:14.789Z,17.75
2023-03-30T07:35:00.715Z,18.11
2023-03-30T07:37:40.249Z,17.71
2023-03-30T07:40:19.342Z,17.51
2023-03-30T07:42:51.332Z,17.97
2023-03-30T07:45:25.672Z,18.13
2023-03-30T07:48:04.503Z,18.35
2023-03-30T07:50:47.706Z,18.31
2023-03-30T07:53:28.671Z,18.45
2023-03-30T07:56:02.672Z,18.12
2023-03-30T07:58:47.240Z,18.04
2023-03-30T08:01:17.886Z,17.64
2023-03-30T08:04:14.000Z,17.92
2023-03-30T08:06:45.794Z,17.77
2023-03-30T08:09:38.966Z,18.49
2023-03-30T08:12:11.159Z,18.51
2023-03-30T08:14:48.078Z,18.42
2023-03-30T08:17:32.455Z,18.87
2023-03-30T08:19:59.649Z,19.15
2023-03-30T08:22:33.017Z,19.19
2023-03-30T08:25:00.234Z,19.32
2023-03-30T08:27:34.862Z,18.87
2023-03-30T08:30:12.757Z,19.69
2023-03-30T08:32:53.969Z,19.75
2023-03-30T08:35:38.229Z,20.08
2023-03-30T08:38:27.969Z,20.32
2023-03-30T08:41:24.644Z,19.83
2023-03-30T08:44:12.440Z,20.47
2023-03-30T08:47:02.111Z,20.82
2023-03-30T08:49:38.802Z,20.59
2023-03-30T08:52:06.116Z,20.70
2023-03-30T08:54:34.510Z,21.51
2023-03-30T08:57:35.414Z,21.78
2023-03-30T09:00:56.298Z,22.13
2023-03-30T09:04:07.075Z,22.87
2023-03-30T09:07:24.522Z,22.76
2023-03-30T09:10:03.291Z,23.32
2023-03-30T09:12:46.138Z,22.62
2023-03-30T09:16:02.089Z,23.52
2023-03-30T09:18:39.398Z,23.06
2023-03-30T09:21:29.085Z,23.79
2023-03-30T09:24:13.202Z,23.42
2023-03-30T09:27:16.221Z,23.34
2023-03-30T09:30:29.252Z,23.90
2023-03-30T09:33:40.160Z,23.76
2023-03-30T09:36:44.744Z,24.24
2023-03-30T09:39:24.389Z,24.59
2023-03-30T09:42:24.536Z,24.98
2023-03-30T09:45:08.134Z,25.64
2023-03-30T09:47:50.025Z,25.65
2023-03-30T09:50:31.512Z,25.67
2023-03-30T09:53:29.569Z,26.05
2023-03-30T09:56:22.541Z,26.36
2023-03-30T09:58:56.780Z,25.55
2023-03-30T10:01:46.415Z,25.63
2023-03-30T10:04:21.615Z,26.03
2023-03-30T10:09:44.875Z,25.98
2023-03-30T10:12:25.768Z,25.95
2023-03-30T10:15:08.793Z,25.69
2023-03-30T10:17:51.537Z,25.77
2023-03-30T10:20:48.294Z,25.62
2023-03-30T10:23:48.093Z,25.35
2023-03-30T10:26:30.901Z,25.55
2023-03-30T10:29:13.285Z,24.90
2023-03-30T10:32:06.092Z,25.30
2023-03-30T10:34:55.594Z,25.25
2023-03-30T10:37:31.372Z,25.75
2023-03-30T10:40:09.058Z,26.05
2023-03-30T10:42:54.802Z,25.87
2023-03-30T10:45:49.390Z,26.14
2023-03-30T10:48:34.110Z,25.86
2023-03-30T10:51:41.445Z,25.57
2023-03-30T10:54:45.522Z,25.53
2023-03-30T10:57:28.591Z,25.57
2023-03-30T11:00:41.096Z,25.57
2023-03-30T11:03:27.676Z,25.90
2023-03-30T11:06:26.845Z,25.76
2023-03-30T11:09:17.577Z,26.29
2023-03-30T11:12:23.380Z,27.19
2023-03-30T11:15:12.535Z,27.14
2023-03-30T11:18:02.796Z,27.43
2023-03-30T11:21:05.744Z,27.63
2023-03-30T11:23:49.202Z,27.21
2023-03-30T11:26:39.385Z,27.41
2023-03-30T11:29:53.454Z,26.81
2023-03-30T11:32:50.204Z,26.76
2023-03-30T11:35:58.903Z,27.24
2023-03-30T11:39:02.645Z,26.99
2023-03-30T11:41:57.301Z,27.02
2023-03-30T11:44:43.605Z,27.39
2023-03-30T11:47:32.699Z,27.90
2023-03-30T11:50:36.243Z,27.51
2023-03-30T11:53:30.915Z,27.89
2023-03-30T11:56:11.544Z,28.29
2023-03-30T11:58:49.528Z,27.89
2023-03-30T12:01:50.723Z,28.46
2023-03-30T12:04:36.853Z,28.56
2023-03-30T12:07:22.582Z,28.51
2023-03-30T12:10:33.937Z,28.52
2023-03-30T12:13:29.400Z,27.91
2023-03-30T12:16:49.645Z,27.95
2023-03-30T12:19:58.461Z,28.29
2023-03-30T12:23:29.985Z,28.52
2023-03-30T12:26:32.406Z,28.50
2023-03-30T12:31:59.651Z,28.69
2023-03-30T12:34:41.118Z,28.53
2023-03-30T12:37:33.735Z,28.60
2023-03-30T12:40:26.338Z,28.40
2023-03-30T12:43:26.579Z,28.47
2023-03-30T12:46:14.161Z,27.79
2023-03-30T12:49:13.750Z,28.12
2023-03-30T12:52:00.423Z,27.74
2023-03-30T12:54:33.159Z,27.60
2023-03-30T12:57:28.497Z,27.00
2023-03-30T13:00:17.328Z,26.85
2023-03-30T13:03:07.257Z,27.25
2023-03-30T13:08:34.380Z,26.31
2023-03-30T13:11:26.753Z,26.38
2023-03-30T13:14:39.447Z,25.87
2023-03-30T13:17:26.104Z,25.19
2023-03-30T13:20:31.802Z,25.52
2023-03-30T13:23:12.687Z,26.24
2023-03-30T13:25:49.928Z,26.24
2023-03-30T13:29:11.931Z,26.85
2023-03-30T13:32:12.998Z,26.52
2023-03-30T13:35:27.519Z,26.55
2023-03-30T13:38:22.642Z,26.18
2023-03-30T13:41:09.566Z,26.77
2023-03-30T13:44:20.179Z,27.27
2023-03-30T13:47:08.592Z,26.83
2023-03-30T13:50:07.473Z,26.94
2023-03-30T13:52:44.955Z,26.25
2023-03-30T13:55:29.479Z,26.65
2023-03-30T13:58:15.070Z,26.40
2023-03-30T14:01:05.816Z,26.54
2023-03-30T14:03:51.934Z,25.93
2023-03-30T14:06:46.359Z,26.25
2023-03-30T14:09:29.258Z,25.76
2023-03-30T14:12:07.876Z,25.35
2023-03-30T14:14:55.934Z,25.53
2023-03-30T14:17:34.179Z,25.08
2023-03-30T14:20:38.814Z,24.98
2023-03-30T14:23:25.705Z,24.55
2023-03-30T14:26:12.085Z,24.62
2023-03-30T14:29:01.032Z,24.80
2023-03-30T14:32:20.996Z,24.54
2023-03-30T14:35:17.702Z,24.84
2023-03-30T14:38:06.734Z,24.84
2023-03-30T14:44:10.616Z,24.63
2023-03-30T14:47:00.141Z,24.62
2023-03-30T14:49:40.510Z,24.87
2023-03-30T14:52:35.865Z,24.80
2023-03-30T14:55:18.949Z,24.71
2023-03-30T14:57:55.582Z,24.68
2023-03-30T15:03:32.833Z,24.31
2023-03-30T15:06:19.884Z,23.98
2023-03-30T15:09:00.026Z,24.23
2023-03-30T15:11:29.462Z,24.47
2023-03-30T15:14:03.864Z,24.20
2023-03-30T15:16:41.173Z,23.99
2023-03-30T15:19:33.381Z,23.70
2023-03-30T15:22:37.894Z,24.08
2023-03-30T15:25:18.198Z,24.31
2023-03-30T15:28:05.978Z,24.17
2023-03-30T15:30:41.310Z,24.19
2023-03-30T15:33:34.936Z,23.83
2023-03-30T15:36:20.678Z,23.87
2023-03-30T15:39:06.060Z,23.72
2023-03-30T15:42:12.137Z,23.54
2023-03-30T15:44:48.814Z,23.52
2023-03-30T15:47:24.986Z,23.54
2023-03-30T15:50:18.176Z,23.36
2023-03-30T15:52:58.431Z,23.12
2023-03-30T15:55:55.018Z,23.03
2023-03-30T15:58:29.088Z,23.04
2023-03-30T16:00:59.499Z,22.79
2023-03-30T16:03:41.707Z,22.80
2023-03-30T16:06:19.956Z,22.90
2023-03-30T16:09:04.931Z,22.96
2023-03-30T16:11:35.180Z,22.81
2023-03-30T16:17:10.333Z,22.72
2023-03-30T16:19:56.195Z,22.77
2023-03-30T16:22:44.551Z,22.57
2023-03-30T16:25:23.275Z,22.49
2023-03-30T16:31:01.288Z,22.44
2023-03-30T16:33:31.997Z,22.40
2023-03-30T16:36:14.343Z,21.99
2023-03-30T16:38:55.369Z,21.94
2023-03-30T16:41:33.412Z,21.96
2023-03-30T16:44:14.074Z,22.07
2023-03-30T16:46:59.266Z,21.97
2023-03-30T16:49:42.070Z,21.77
2023-03-30T16:52:25.327Z,21.84
2023-03-30T16:55:03.574Z,21.68
2023-03-30T16:57:42.032Z,21.91
2023-03-30T17:00:47.679Z,21.36
2023-03-30T17:03:20.531Z,21.33
2023-03-30T17:05:57.170Z,21.49
2023-03-30T17:08:37.690Z,21.27
2023-03-30T17:11:13.817Z,21.57
2023-03-30T17:13:49.561Z,21.43
2023-03-30T17:16:30.173Z,21.63
2023-03-30T17:19:16.451Z,21.22
2023-03-30T17:21:54.694Z,21.18
2023-03-30T17:24:31.593Z,21.30
2023-03-30T17:27:03.108Z,21.46
2023-03-30T17:29:39.491Z,21.43
2023-03-30T17:32:17.420Z,21.36
2023-03-30T17:34:55.202Z,21.13
2023-03-30T17:37:28.038Z,21.21
2023-03-30T17:40:11.291Z,21.26
2023-03-30T17:42:44.847Z,21.04
2023-03-30T17:45:24.945Z,21.18
2023-03-30T17:48:05.886Z,20.90
2023-03-30T17:50:53.624Z,21.09
2023-03-30T17:53:32.937Z,21.12
2023-03-30T17:56:04.525Z,21.12
2023-03-30T17:58:46.169Z,21.05
2023-03-30T18:01:21.589Z,21.09
2023-03-30T18:04:17.480Z,20.83
2023-03-30T18:06:57.926Z,20.94
2023-03-30T18:09:44.868Z,20.91
2023-03-30T18:12:28.045Z,20.74
2023-03-30T18:18:02.799Z,20.77
2023-03-30T18:20:46.388Z,20.81
2023-03-30T18:23:26.403Z,20.81
2023-03-30T18:26:20.024Z,20.76
2023-03-30T18:28:52.151Z,20.63
2023-03-30T18:31:28.896Z,20.68
2023-03-30T18:33:58.789Z,20.16
2023-03-30T18:36:37.865Z,20.19
2023-03-30T18:39:37.614Z,20.09
2023-03-30T18:42:13.887Z,19.93
2023-03-30T18:44:53.748Z,19.94
2023-03-30T18:47:29.109Z,20.16
2023-03-30T18:50:01.622Z,19.98
2023-03-30T18:52:34.062Z,20.02
2023-03-30T18:55:08.998Z,20.16
2023-03-30T18:57:50.708Z,20.01
2023-03-30T19:00:30.590Z,20.14
2023-03-30T19:03:00.668Z,20.22
2023-03-30T19:05:33.536Z,20.24
2023-03-30T19:08:11.568Z,20.04
2023-03-30T19:10:48.961Z,20.10
2023-03-30T19:13:27.963Z,20.05
2023-03-30T19:16:08.496Z,20.21
2023-03-30T19:18:44.934Z,20.10
2023-03-30T19:21:39.279Z,20.11
2023-03-30T19:24:14.145Z,19.85
2023-03-30T19:26:44.588Z,20.02
2023-03-30T19:29:32.074Z,19.81
2023-03-30T19:32:05.027Z,20.02
2023-03-30T19:34:39.740Z,20.08
2023-03-30T19:37:09.498Z,20.11
2023-03-30T19:39:43.846Z,20.18
2023-03-30T19:42:21.439Z,20.24
2023-03-30T19:44:58.111Z,20.14
2023-03-30T19:47:32.573Z,19.98
2023-03-30T19:53:09.737Z,20.13
2023-03-30T19:55:49.298Z,19.98
2023-03-30T19:58:24.710Z,19.78
2023-03-30T20:01:03.643Z,19.95
2023-03-30T20:03:40.478Z,19.73
2023-03-30T20:06:18.832Z,19.59
2023-03-30T20:08:55.113Z,19.68
2023-03-30T20:11:33.226Z,19.75
2023-03-30T20:17:00.587Z,19.67
2023-03-30T20:19:57.258Z,19.76
2023-03-30T20:22:34.203Z,19.73
2023-03-30T20:25:08.621Z,19.69
2023-03-30T20:27:41.558Z,19.92
2023-03-30T20:30:12.852Z,19.91
2023-03-30T20:33:06.351Z,19.93
2023-03-30T20:35:45.809Z,19.64
2023-03-30T20:38:25.410Z,19.75
2023-03-30T20:41:15.837Z,19.84
2023-03-30T20:43:57.609Z,19.80
2023-03-30T20:46:37.630Z,19.65
2023-03-30T20:49:13.176Z,19.73
2023-03-30T20:51:46.337Z,19.85
2023-03-30T20:54:18.288Z,19.90
2023-03-30T20:56:51.189Z,19.82
2023-03-30T20:59:24.327Z,19.93
2023-03-30T21:02:01.300Z,19.95
2023-03-30T21:04:29.094Z,19.98
2023-03-30T21:07:00.575Z,19.98
2023-03-30T21:09:30.324Z,19.96
2023-03-30T21:12:05.753Z,20.04
2023-03-30T21:14:37.957Z,20.09
2023-03-30T21:17:08.071Z,20.10
2023-03-30T21:19:43.599Z,20.07
2023-03-30T21:22:13.737Z,20.05
2023-03-30T21:24:43.858Z,19.99
2023-03-30T21:27:16.248Z,20.04
2023-03-30T21:29:59.584Z,19.98
2023-03-30T21:32:34.817Z,19.99
2023-03-30T21:35:04.743Z,19.99
2023-03-30T21:37:50.212Z,19.99
2023-03-30T21:40:25.739Z,19.91
2023-03-30T21:43:07.144Z,19.98
2023-03-30T21:45:42.307Z,20.00
2023-03-30T21:48:14.739Z,20.02
2023-03-30T21:50:50.390Z,20.03
2023-03-30T21:53:21.086Z,19.99
2023-03-30T21:55:54.643Z,20.05
2023-03-30T21:58:40.411Z,20.02
2023-03-30T22:01:25.190Z,19.99
2023-03-30T22:04:31.737Z,19.93
2023-03-30T22:07:21.732Z,19.95
2023-03-30T22:10:01.679Z,19.80
2023-03-30T22:12:49.400Z,19.87
2023-03-30T22:15:23.321Z,19.82
2023-03-30T22:18:04.851Z,19.63
2023-03-30T22:20:40.425Z,19.61
2023-03-30T22:23:21.928Z,19.51
2023-03-30T22:26:04.279Z,19.46
2023-03-30T22:28:45.242Z,19.52
2023-03-30T22:31:23.631Z,19.65
2023-03-30T22:34:06.696Z,19.64
2023-03-30T22:36:36.957Z,19.71
2023-03-30T22:39:05.355Z,19.74
2023-03-30T22:41:37.067Z,19.78
2023-03-30T22:44:28.742Z,19.69
2023-03-30T22:47:03.508Z,19.58
2023-03-30T22:49:33.875Z,19.28
2023-03-30T22:52:11.909Z,19.30
2023-03-30T22:54:44.434Z,19.45
2023-03-30T22:57:23.376Z,19.46
2023-03-30T22:59:59.647Z,19.36
2023-03-30T23:02:29.231Z,19.44
2023-03-30T23:05:15.271Z,18.77
2023-03-30T23:07:46.287Z,18.89
2023-03-30T23:13:14.934Z,18.92
2023-03-30T23:15:48.938Z,18.88
2023-03-30T23:18:30.765Z,18.98
2023-03-30T23:21:13.862Z,18.93
2023-03-30T23:23:46.856Z,18.82
2023-03-30T23:26:16.686Z,18.93
2023-03-30T23:28:46.987Z,18.77
2023-03-30T23:31:25.123Z,18.59
2023-03-30T23:33:57.219Z,18.60
2023-03-30T23:36:32.349Z,18.54
2023-03-30T23:39:37.942Z,18.28
2023-03-30T23:42:16.109Z,18.02
2023-03-30T23:44:48.208Z,18.30
2023-03-30T23:47:17.963Z,18.37
2023-03-30T23:49:50.409Z,18.23
2023-03-30T23:52:29.232Z,17.97
2023-03-30T23:55:02.194Z,18.46
2023-03-30T23:57:35.674Z,17.69
